Terminal Aerodrome Forecast
Issued by NWS

Home | Current Version | Previous Version | Text Only | Print | Product List | Glossary On
Versions: 1 2 3 4 5 6 7 8 9 10 11 12 13 14 15 16 17 18 19 20 21 22 23 24 25 26
000
FTUS43 KSGF 161000 AAB
TAFJLN
TAF AMD
KJLN 161027Z 1610/1706 02005KT 5SM BR BKN006 OVC015
     FM161600 07005KT P6SM BKN250
     FM170100 12003KT P6SM SCT250=

USA.gov is the U.S. government's official web portal to all federal, state and local government web resources and services.